createdAt,value
2023-03-06T00:01:54.746Z,97378.19
2023-03-06T00:04:21.664Z,97377.34
2023-03-06T00:06:48.889Z,97376.97
2023-03-06T00:09:15.807Z,97372.84
2023-03-06T00:11:42.675Z,97367.91
2023-03-06T00:14:09.553Z,97368.88
2023-03-06T00:16:36.522Z,97372.47
2023-03-06T00:19:03.504Z,97367.38
2023-03-06T00:21:30.566Z,97369.03
2023-03-06T00:23:57.480Z,97374.28
2023-03-06T00:26:24.395Z,97371.13
2023-03-06T00:28:51.256Z,97373.22
2023-03-06T00:31:18.246Z,97373.38
2023-03-06T00:33:45.110Z,97375.31
2023-03-06T00:36:12.094Z,97376.28
2023-03-06T00:38:41.005Z,97377.25
2023-03-06T00:41:11.669Z,97375.75
2023-03-06T00:43:38.921Z,97377.53
2023-03-06T00:46:08.083Z,97379.66
2023-03-06T00:48:35.067Z,97378.53
2023-03-06T00:51:01.953Z,97375.25
2023-03-06T00:53:28.959Z,97370.97
2023-03-06T00:55:55.988Z,97373.44
2023-03-06T00:58:22.884Z,97366.56
2023-03-06T01:00:49.852Z,97367.66
2023-03-06T01:03:16.886Z,97373.88
2023-03-06T01:05:43.827Z,97367.81
2023-03-06T01:08:10.808Z,97371.25
2023-03-06T01:10:41.262Z,97372.25
2023-03-06T01:13:09.351Z,97368.81
2023-03-06T01:15:36.244Z,97371.94
2023-03-06T01:18:03.153Z,97375.53
2023-03-06T01:20:30.204Z,97374.53
2023-03-06T01:22:57.239Z,97378.00
2023-03-06T01:25:24.758Z,97376.22
2023-03-06T01:27:51.794Z,97385.72
2023-03-06T01:30:19.226Z,97379.78
2023-03-06T01:32:46.762Z,97384.09
2023-03-06T01:35:13.956Z,97371.09
2023-03-06T01:37:41.092Z,97377.47
2023-03-06T01:40:08.899Z,97383.00
2023-03-06T01:42:35.979Z,97378.91
2023-03-06T01:45:06.047Z,97383.16
2023-03-06T01:47:35.014Z,97377.94
2023-03-06T01:50:04.159Z,97376.13
2023-03-06T01:52:33.138Z,97379.03
2023-03-06T01:55:05.711Z,97385.25
2023-03-06T01:57:34.456Z,97380.28
2023-03-06T02:00:04.651Z,97382.25
2023-03-06T02:02:40.604Z,97394.00
2023-03-06T02:05:08.281Z,97389.03
2023-03-06T02:07:36.591Z,97388.22
2023-03-06T02:10:05.273Z,97387.25
2023-03-06T02:12:32.188Z,97388.91
2023-03-06T02:14:59.374Z,97392.34
2023-03-06T02:17:27.871Z,97387.78
2023-03-06T02:19:54.957Z,97393.72
2023-03-06T02:22:22.404Z,97388.59
2023-03-06T02:24:57.629Z,97390.16
2023-03-06T02:27:25.270Z,97395.25
2023-03-06T02:29:55.015Z,97391.25
2023-03-06T02:32:21.970Z,97401.75
2023-03-06T02:34:54.578Z,97390.31
2023-03-06T02:37:22.940Z,97388.66
2023-03-06T02:40:09.782Z,97391.56
2023-03-06T02:42:36.954Z,97391.56
2023-03-06T02:45:05.533Z,97382.91
2023-03-06T02:47:33.228Z,97384.81
2023-03-06T02:50:00.569Z,97390.06
2023-03-06T02:52:27.548Z,97387.59
2023-03-06T02:54:55.838Z,97393.66
2023-03-06T02:57:22.866Z,97395.31
2023-03-06T03:00:09.951Z,97395.84
2023-03-06T03:02:37.497Z,97386.03
2023-03-06T03:05:04.666Z,97387.81
2023-03-06T03:07:31.989Z,97389.50
2023-03-06T03:09:59.099Z,97390.97
2023-03-06T03:12:28.762Z,97388.38
2023-03-06T03:14:56.749Z,97390.00
2023-03-06T03:17:24.048Z,97394.28
2023-03-06T03:19:51.998Z,97393.84
2023-03-06T03:22:19.874Z,97403.50
2023-03-06T03:24:47.395Z,97393.00
2023-03-06T03:27:14.873Z,97397.16
2023-03-06T03:29:42.914Z,97397.16
2023-03-06T03:32:10.319Z,97397.97
2023-03-06T03:34:37.697Z,97397.00
2023-03-06T03:37:05.544Z,97398.56
2023-03-06T03:39:32.942Z,97394.00
2023-03-06T03:42:00.013Z,97401.84
2023-03-06T03:44:28.165Z,97401.69
2023-03-06T03:46:55.861Z,97402.22
2023-03-06T03:49:23.418Z,97405.28
2023-03-06T03:51:51.166Z,97402.00
2023-03-06T03:54:20.356Z,97403.25
2023-03-06T03:56:49.918Z,97396.66
2023-03-06T03:59:23.156Z,97400.25
2023-03-06T04:02:07.635Z,97402.88
2023-03-06T04:04:41.342Z,97402.06
2023-03-06T04:07:10.271Z,97408.13
2023-03-06T04:09:39.015Z,97397.47
2023-03-06T04:12:06.680Z,97402.44
2023-03-06T04:14:35.512Z,97393.88
2023-03-06T04:17:03.371Z,97406.03
2023-03-06T04:19:30.401Z,97396.50
2023-03-06T04:21:57.951Z,97402.72
2023-03-06T04:24:25.456Z,97409.59
2023-03-06T04:26:52.948Z,97399.50
2023-03-06T04:29:19.836Z,97397.31
2023-03-06T04:31:47.037Z,97398.94
2023-03-06T04:34:14.301Z,97400.31
2023-03-06T04:36:45.258Z,97402.63
2023-03-06T04:39:14.492Z,97397.00
2023-03-06T04:41:42.284Z,97403.44
2023-03-06T04:44:09.512Z,97403.97
2023-03-06T04:46:45.447Z,97404.50
2023-03-06T04:49:12.438Z,97398.13
2023-03-06T04:51:39.534Z,97398.84
2023-03-06T04:54:06.461Z,97403.75
2023-03-06T04:56:34.716Z,97406.09
2023-03-06T04:59:02.664Z,97408.06
2023-03-06T05:01:29.686Z,97400.56
2023-03-06T05:03:56.778Z,97399.75
2023-03-06T05:06:23.726Z,97405.66
2023-03-06T05:08:50.697Z,97409.91
2023-03-06T05:11:17.705Z,97410.44
2023-03-06T05:13:44.655Z,97412.91
2023-03-06T05:16:11.697Z,97414.88
2023-03-06T05:18:38.630Z,97409.09
2023-03-06T05:21:06.364Z,97413.16
2023-03-06T05:23:34.553Z,97410.03
2023-03-06T05:26:01.438Z,97407.63
2023-03-06T05:28:28.905Z,97408.81
2023-03-06T05:30:55.852Z,97415.19
2023-03-06T05:33:22.846Z,97414.06
2023-03-06T05:35:50.314Z,97411.88
2023-03-06T05:38:17.938Z,97410.78
2023-03-06T05:40:45.296Z,97420.94
2023-03-06T05:43:17.530Z,97418.69
2023-03-06T05:45:44.785Z,97423.94
2023-03-06T05:48:12.883Z,97424.22
2023-03-06T05:50:40.396Z,97433.06
2023-03-06T05:53:07.690Z,97430.41
2023-03-06T05:55:34.683Z,97434.69
2023-03-06T05:58:01.580Z,97433.78
2023-03-06T06:00:28.607Z,97431.69
2023-03-06T06:02:55.646Z,97434.06
2023-03-06T06:05:22.774Z,97433.47
2023-03-06T06:07:49.747Z,97438.31
2023-03-06T06:10:18.169Z,97442.59
2023-03-06T06:12:45.915Z,97432.25
2023-03-06T06:15:13.754Z,97436.91
2023-03-06T06:17:40.828Z,97441.03
2023-03-06T06:20:10.616Z,97439.38
2023-03-06T06:22:38.347Z,97434.28
2023-03-06T06:25:06.024Z,97430.06
2023-03-06T06:27:33.103Z,97432.69
2023-03-06T06:30:00.151Z,97440.78
2023-03-06T06:32:28.085Z,97448.72
2023-03-06T06:34:55.613Z,97441.47
2023-03-06T06:37:22.747Z,97446.84
2023-03-06T06:39:52.049Z,97446.13
2023-03-06T06:42:31.444Z,97445.22
2023-03-06T06:45:02.956Z,97447.00
2023-03-06T06:47:35.015Z,97440.84
2023-03-06T06:50:02.716Z,97458.16
2023-03-06T06:52:31.132Z,97461.50
2023-03-06T06:54:59.333Z,97447.34
2023-03-06T06:57:26.542Z,97451.50
2023-03-06T06:59:54.264Z,97452.16
2023-03-06T07:02:21.661Z,97461.44
2023-03-06T07:05:02.534Z,97455.53
2023-03-06T07:07:31.513Z,97458.75
2023-03-06T07:09:58.432Z,97454.59
2023-03-06T07:12:25.599Z,97444.91
2023-03-06T07:14:52.655Z,97456.13
2023-03-06T07:17:19.534Z,97451.69
2023-03-06T07:19:46.733Z,97454.66
2023-03-06T07:22:14.155Z,97458.34
2023-03-06T07:24:41.171Z,97461.34
2023-03-06T07:27:08.210Z,97458.34
2023-03-06T07:29:35.185Z,97467.16
2023-03-06T07:32:02.288Z,97461.00
2023-03-06T07:34:29.273Z,97469.41
2023-03-06T07:36:57.451Z,97468.00
2023-03-06T07:39:24.560Z,97461.88
2023-03-06T07:41:52.911Z,97474.81
2023-03-06T07:44:20.251Z,97459.41
2023-03-06T07:46:47.287Z,97450.78
2023-03-06T07:49:15.232Z,97469.66
2023-03-06T07:51:42.448Z,97474.81
2023-03-06T07:54:09.770Z,97470.69
2023-03-06T07:56:37.461Z,97482.31
2023-03-06T07:59:04.782Z,97478.72
2023-03-06T08:01:33.442Z,97477.66
2023-03-06T08:04:02.645Z,97472.19
2023-03-06T08:06:30.235Z,97480.41
2023-03-06T08:08:57.959Z,97471.53
2023-03-06T08:11:26.313Z,97477.69
2023-03-06T08:13:54.405Z,97482.66
2023-03-06T08:16:22.646Z,97486.69
2023-03-06T08:18:50.192Z,97490.16
2023-03-06T08:21:18.838Z,97479.88
2023-03-06T08:23:46.046Z,97489.75
2023-03-06T08:26:20.456Z,97481.25
2023-03-06T08:28:47.734Z,97493.75
2023-03-06T08:31:25.703Z,97485.41
2023-03-06T08:33:53.276Z,97491.91
2023-03-06T08:36:20.204Z,97485.66
2023-03-06T08:38:47.622Z,97489.53
2023-03-06T08:41:15.127Z,97490.56
2023-03-06T08:43:42.852Z,97491.06
2023-03-06T08:46:10.742Z,97486.31
2023-03-06T08:48:38.249Z,97486.69
2023-03-06T08:51:05.519Z,97484.56
2023-03-06T08:53:42.670Z,97490.22
2023-03-06T08:56:21.959Z,97493.50
2023-03-06T08:58:49.092Z,97497.94
2023-03-06T09:01:17.918Z,97495.50
2023-03-06T09:03:45.744Z,97501.22
2023-03-06T09:06:17.620Z,97504.44
2023-03-06T09:08:44.890Z,97500.88
2023-03-06T09:11:15.789Z,97493.38
2023-03-06T09:13:43.276Z,97498.53
2023-03-06T09:16:10.869Z,97505.16
2023-03-06T09:18:39.727Z,97497.75
2023-03-06T09:21:07.233Z,97501.16
2023-03-06T09:23:34.404Z,97507.06
2023-03-06T09:26:02.266Z,97500.06
2023-03-06T09:28:29.545Z,97500.03
2023-03-06T09:30:57.988Z,97504.50
2023-03-06T09:33:25.805Z,97507.28
2023-03-06T09:35:55.323Z,97503.69
2023-03-06T09:38:25.817Z,97516.53
2023-03-06T09:40:59.394Z,97511.91
2023-03-06T09:43:32.225Z,97512.59
2023-03-06T09:45:59.570Z,97511.44
2023-03-06T09:48:39.611Z,97517.00
2023-03-06T09:51:11.841Z,97515.13
2023-03-06T09:53:38.923Z,97507.19
2023-03-06T09:56:16.408Z,97516.88
2023-03-06T09:58:56.295Z,97518.34
2023-03-06T10:01:31.943Z,97521.91
2023-03-06T10:04:22.286Z,97522.41
2023-03-06T10:06:51.887Z,97523.66
2023-03-06T10:09:24.891Z,97522.09
2023-03-06T10:11:55.700Z,97524.53
2023-03-06T10:14:29.726Z,97524.19
2023-03-06T10:16:57.211Z,97525.22
2023-03-06T10:19:30.844Z,97522.53
2023-03-06T10:22:01.191Z,97526.97
2023-03-06T10:24:34.183Z,97525.78
2023-03-06T10:27:21.705Z,97524.28
2023-03-06T10:30:02.086Z,97531.84
2023-03-06T10:32:47.421Z,97527.75
2023-03-06T10:35:33.517Z,97533.19
2023-03-06T10:38:02.185Z,97528.41
2023-03-06T10:40:36.288Z,97530.94
2023-03-06T10:43:11.412Z,97531.16
2023-03-06T10:45:49.858Z,97522.50
2023-03-06T10:48:21.586Z,97535.84
2023-03-06T10:50:49.069Z,97525.59
2023-03-06T10:53:24.015Z,97523.56
2023-03-06T10:55:59.615Z,97536.09
2023-03-06T10:58:31.968Z,97521.75
2023-03-06T11:01:18.805Z,97524.53
2023-03-06T11:03:45.938Z,97536.03
2023-03-06T11:06:14.621Z,97525.47
2023-03-06T11:08:43.283Z,97530.91
2023-03-06T11:11:36.803Z,97535.31
2023-03-06T11:14:16.022Z,97534.78
2023-03-06T11:16:53.459Z,97535.59
2023-03-06T11:19:23.930Z,97535.19
2023-03-06T11:22:01.311Z,97540.06
2023-03-06T11:24:33.035Z,97530.38
2023-03-06T11:27:02.317Z,97541.53
2023-03-06T11:29:34.607Z,97539.13
2023-03-06T11:32:10.536Z,97541.25
2023-03-06T11:34:40.789Z,97539.84
2023-03-06T11:37:37.358Z,97544.63
2023-03-06T11:40:13.239Z,97536.69
2023-03-06T11:42:52.360Z,97534.66
2023-03-06T11:45:23.473Z,97544.41
2023-03-06T11:48:11.827Z,97538.34
2023-03-06T11:50:42.114Z,97536.56
2023-03-06T11:53:14.441Z,97544.44
2023-03-06T11:56:00.220Z,97532.69
2023-03-06T11:58:46.054Z,97532.56
2023-03-06T12:01:32.158Z,97546.28
2023-03-06T12:04:03.635Z,97531.97
2023-03-06T12:06:30.660Z,97548.28
2023-03-06T12:09:09.162Z,97532.09
2023-03-06T12:11:39.471Z,97548.06
2023-03-06T12:14:09.667Z,97544.91
2023-03-06T12:16:54.978Z,97547.69
2023-03-06T12:19:36.252Z,97549.97
2023-03-06T12:22:06.329Z,97548.69
2023-03-06T12:24:42.698Z,97544.41
2023-03-06T12:27:19.905Z,97548.03
2023-03-06T12:30:05.781Z,97541.19
2023-03-06T12:32:39.567Z,97556.09
2023-03-06T12:35:25.689Z,97558.84
2023-03-06T12:37:52.678Z,97556.31
2023-03-06T12:40:22.314Z,97572.78
2023-03-06T12:42:52.665Z,97582.41
2023-03-06T12:45:29.105Z,97601.53
2023-03-06T12:47:57.536Z,97583.97
2023-03-06T12:50:26.388Z,97588.47
2023-03-06T12:52:55.201Z,97582.69
2023-03-06T12:55:25.751Z,97586.94
2023-03-06T12:57:53.649Z,97586.78
2023-03-06T13:00:33.364Z,97571.72
2023-03-06T13:03:26.818Z,97576.97
2023-03-06T13:05:56.949Z,97574.97
2023-03-06T13:08:27.009Z,97579.84
2023-03-06T13:11:09.314Z,97585.22
2023-03-06T13:13:42.885Z,97593.13
2023-03-06T13:16:12.832Z,97600.78
2023-03-06T13:18:46.372Z,97607.81
2023-03-06T13:21:32.062Z,97611.34
2023-03-06T13:24:05.853Z,97596.75
2023-03-06T13:26:32.858Z,97598.13
2023-03-06T13:29:00.777Z,97599.41
2023-03-06T13:31:29.296Z,97597.66
2023-03-06T13:34:02.069Z,97585.66
2023-03-06T13:36:33.303Z,97593.53
2023-03-06T13:39:00.406Z,97597.84
2023-03-06T13:41:34.351Z,97589.03
2023-03-06T13:44:28.524Z,97599.44
2023-03-06T13:47:00.145Z,97601.75
2023-03-06T13:49:27.867Z,97610.16
2023-03-06T13:51:55.037Z,97596.34
2023-03-06T13:54:48.567Z,97608.97
2023-03-06T13:57:18.731Z,97613.16
2023-03-06T14:00:09.766Z,97616.44
2023-03-06T14:02:37.025Z,97619.19
2023-03-06T14:05:10.711Z,97613.50
2023-03-06T14:07:48.294Z,97617.06
2023-03-06T14:10:15.426Z,97613.84
2023-03-06T14:13:03.121Z,97621.13
2023-03-06T14:15:33.033Z,97620.56
2023-03-06T14:18:07.575Z,97622.81
2023-03-06T14:20:40.438Z,97629.84
2023-03-06T14:23:16.991Z,97619.53
2023-03-06T14:25:45.459Z,97621.81
2023-03-06T14:28:23.314Z,97625.41
2023-03-06T14:30:54.057Z,97615.38
2023-03-06T14:33:39.677Z,97617.16
2023-03-06T14:36:09.969Z,97634.78
2023-03-06T14:38:42.693Z,97637.13
2023-03-06T14:41:12.944Z,97639.28
2023-03-06T14:43:42.156Z,97645.72
2023-03-06T14:46:18.853Z,97642.88
2023-03-06T14:48:47.005Z,97645.28
2023-03-06T14:51:21.796Z,97650.28
2023-03-06T14:53:54.065Z,97649.38
2023-03-06T14:56:23.279Z,97653.19
2023-03-06T14:59:00.982Z,97654.44
2023-03-06T15:01:31.966Z,97660.41
2023-03-06T15:04:00.605Z,97666.25
2023-03-06T15:06:31.345Z,97669.41
2023-03-06T15:09:01.495Z,97677.44
2023-03-06T15:11:48.706Z,97675.63
2023-03-06T15:14:27.622Z,97674.13
2023-03-06T15:16:54.805Z,97675.53
2023-03-06T15:19:22.432Z,97680.78
2023-03-06T15:21:51.226Z,97687.13
2023-03-06T15:24:38.682Z,97683.69
2023-03-06T15:27:07.705Z,97689.75
2023-03-06T15:29:38.913Z,97695.31
2023-03-06T15:32:13.514Z,97693.78
2023-03-06T15:34:40.529Z,97700.97
2023-03-06T15:37:28.976Z,97699.34
2023-03-06T15:40:03.229Z,97702.91
2023-03-06T15:42:34.564Z,97708.44
2023-03-06T15:45:12.472Z,97712.72
2023-03-06T15:47:39.575Z,97710.09
2023-03-06T15:50:13.966Z,97726.25
2023-03-06T15:52:41.012Z,97711.91
2023-03-06T15:55:08.193Z,97724.75
2023-03-06T15:57:35.399Z,97721.13
2023-03-06T16:00:02.677Z,97722.16
2023-03-06T16:02:39.421Z,97736.19
2023-03-06T16:05:17.742Z,97727.25
2023-03-06T16:07:44.911Z,97731.09
2023-03-06T16:10:13.607Z,97723.63
2023-03-06T16:12:43.015Z,97734.56
2023-03-06T16:15:17.536Z,97748.25
2023-03-06T16:17:44.803Z,97751.69
2023-03-06T16:20:18.845Z,97741.03
2023-03-06T16:22:46.822Z,97757.75
2023-03-06T16:25:14.602Z,97754.88
2023-03-06T16:27:48.344Z,97768.41
2023-03-06T16:30:19.707Z,97767.69
2023-03-06T16:32:46.888Z,97767.00
2023-03-06T16:35:14.686Z,97770.88
2023-03-06T16:37:41.845Z,97781.09
2023-03-06T16:40:32.817Z,97786.88
2023-03-06T16:42:59.898Z,97794.34
2023-03-06T16:45:27.264Z,97787.75
2023-03-06T16:47:54.707Z,97783.31
2023-03-06T16:50:26.449Z,97799.06
2023-03-06T16:52:54.721Z,97789.09
2023-03-06T16:55:22.096Z,97801.53
2023-03-06T16:57:49.235Z,97805.38
2023-03-06T17:00:17.974Z,97806.50
2023-03-06T17:02:47.813Z,97796.84
2023-03-06T17:05:15.107Z,97790.78
2023-03-06T17:07:42.134Z,97801.38
2023-03-06T17:10:11.455Z,97804.81
2023-03-06T17:12:39.545Z,97807.59
2023-03-06T17:15:20.717Z,97816.13
2023-03-06T17:17:48.841Z,97810.38
2023-03-06T17:20:15.902Z,97809.25
2023-03-06T17:22:43.151Z,97813.41
2023-03-06T17:25:10.287Z,97807.34
2023-03-06T17:27:37.432Z,97824.00
2023-03-06T17:30:05.297Z,97811.75
2023-03-06T17:32:33.019Z,97821.53
2023-03-06T17:35:00.181Z,97825.78
2023-03-06T17:37:27.230Z,97826.63
2023-03-06T17:39:56.453Z,97824.97
2023-03-06T17:42:23.673Z,97834.47
2023-03-06T17:44:54.090Z,97841.53
2023-03-06T17:47:21.062Z,97845.13
2023-03-06T17:49:47.966Z,97826.19
2023-03-06T17:52:14.821Z,97836.84
2023-03-06T17:54:42.058Z,97858.78
2023-03-06T17:57:09.128Z,97847.88
2023-03-06T17:59:36.143Z,97848.56
2023-03-06T18:02:03.190Z,97852.00
2023-03-06T18:04:30.347Z,97860.69
2023-03-06T18:06:58.589Z,97853.81
2023-03-06T18:09:25.901Z,97853.69
2023-03-06T18:11:52.843Z,97855.31
2023-03-06T18:14:19.776Z,97862.47
2023-03-06T18:16:46.904Z,97856.56
2023-03-06T18:19:14.569Z,97868.53
2023-03-06T18:21:41.700Z,97863.84
2023-03-06T18:24:09.512Z,97865.78
2023-03-06T18:26:36.690Z,97870.88
2023-03-06T18:29:04.662Z,97862.34
2023-03-06T18:31:34.665Z,97865.09
2023-03-06T18:34:03.577Z,97867.16
2023-03-06T18:36:31.763Z,97865.09
2023-03-06T18:38:59.428Z,97861.63
2023-03-06T18:41:26.449Z,97867.69
2023-03-06T18:43:57.469Z,97863.72
2023-03-06T18:46:25.560Z,97870.72
2023-03-06T18:48:52.463Z,97870.44
2023-03-06T18:51:20.304Z,97862.97
2023-03-06T18:53:47.448Z,97878.16
2023-03-06T18:56:18.995Z,97873.19
2023-03-06T18:58:46.556Z,97881.75
2023-03-06T19:01:13.642Z,97883.69
2023-03-06T19:03:43.339Z,97890.31
2023-03-06T19:06:12.493Z,97883.09
2023-03-06T19:08:40.158Z,97889.19
2023-03-06T19:11:08.764Z,97893.03
2023-03-06T19:13:35.813Z,97889.16
2023-03-06T19:16:03.410Z,97890.94
2023-03-06T19:18:30.734Z,97886.38
2023-03-06T19:21:07.192Z,97884.88
2023-03-06T19:23:34.174Z,97893.94
2023-03-06T19:26:01.194Z,97891.72
2023-03-06T19:28:28.101Z,97894.09
2023-03-06T19:30:54.993Z,97888.84
2023-03-06T19:33:22.859Z,97890.66
2023-03-06T19:35:49.857Z,97895.31
2023-03-06T19:38:16.818Z,97897.34
2023-03-06T19:40:50.506Z,97904.38
2023-03-06T19:43:17.629Z,97902.03
2023-03-06T19:45:44.875Z,97903.81
2023-03-06T19:48:12.634Z,97899.69
2023-03-06T19:50:40.146Z,97903.13
2023-03-06T19:53:08.034Z,97899.94
2023-03-06T19:55:35.004Z,97909.72
2023-03-06T19:58:02.158Z,97901.16
2023-03-06T20:00:29.440Z,97909.97
2023-03-06T20:02:56.696Z,97898.28
2023-03-06T20:05:23.819Z,97910.78
2023-03-06T20:07:50.761Z,97905.75
2023-03-06T20:10:18.106Z,97908.22
2023-03-06T20:12:45.155Z,97916.66
2023-03-06T20:15:12.363Z,97913.06
2023-03-06T20:17:42.177Z,97912.69
2023-03-06T20:20:10.031Z,97912.00
2023-03-06T20:22:37.154Z,97911.72
2023-03-06T20:25:04.563Z,97913.66
2023-03-06T20:27:32.032Z,97914.91
2023-03-06T20:29:59.178Z,97910.34
2023-03-06T20:32:26.567Z,97906.78
2023-03-06T20:34:53.836Z,97907.88
2023-03-06T20:37:21.086Z,97909.28
2023-03-06T20:39:48.290Z,97913.69
2023-03-06T20:42:15.492Z,97912.56
2023-03-06T20:44:42.400Z,97914.94
2023-03-06T20:47:09.907Z,97915.91
2023-03-06T20:49:36.855Z,97912.06
2023-03-06T20:52:05.192Z,97914.25
2023-03-06T20:54:32.178Z,97917.56
2023-03-06T20:56:59.482Z,97917.56
2023-03-06T20:59:26.714Z,97916.34
2023-03-06T21:01:53.731Z,97919.22
2023-03-06T21:04:20.812Z,97915.38
2023-03-06T21:06:48.057Z,97910.00
2023-03-06T21:09:16.359Z,97927.50
2023-03-06T21:11:43.425Z,97910.97
2023-03-06T21:14:12.468Z,97915.22
2023-03-06T21:16:39.409Z,97917.59
2023-03-06T21:19:06.547Z,97913.31
2023-03-06T21:21:34.706Z,97913.19
2023-03-06T21:24:02.305Z,97920.47
2023-03-06T21:26:30.564Z,97922.25
2023-03-06T21:28:59.055Z,97924.59
2023-03-06T21:31:28.567Z,97918.66
2023-03-06T21:33:56.266Z,97924.75
2023-03-06T21:36:23.737Z,97921.69
2023-03-06T21:38:51.975Z,97925.25
2023-03-06T21:41:20.480Z,97920.00
2023-03-06T21:43:47.745Z,97932.28
2023-03-06T21:46:14.943Z,97927.16
2023-03-06T21:48:42.104Z,97930.47
2023-03-06T21:51:10.803Z,97929.66
2023-03-06T21:53:38.573Z,97929.66
2023-03-06T21:56:05.711Z,97933.38
2023-03-06T21:58:33.168Z,97930.75
2023-03-06T22:01:00.262Z,97935.47
2023-03-06T22:03:28.748Z,97928.44
2023-03-06T22:05:56.696Z,97933.81
2023-03-06T22:08:25.302Z,97934.78
2023-03-06T22:10:52.859Z,97926.63
2023-03-06T22:13:20.202Z,97932.84
2023-03-06T22:15:51.116Z,97933.53
2023-03-06T22:18:18.099Z,97939.31
2023-03-06T22:20:45.311Z,97931.88
2023-03-06T22:23:12.420Z,97933.28
2023-03-06T22:25:39.571Z,97933.41
2023-03-06T22:28:06.550Z,97938.78
2023-03-06T22:30:33.460Z,97930.22
2023-03-06T22:33:00.989Z,97923.34
2023-03-06T22:35:27.930Z,97921.53
2023-03-06T22:37:55.181Z,97926.91
2023-03-06T22:40:22.211Z,97930.22
2023-03-06T22:42:49.126Z,97930.22
2023-03-06T22:45:16.158Z,97928.56
2023-03-06T22:47:43.129Z,97920.44
2023-03-06T22:50:10.781Z,97931.63
2023-03-06T22:52:38.934Z,97930.22
2023-03-06T22:55:06.234Z,97925.00
2023-03-06T22:57:33.144Z,97924.75
2023-03-06T23:00:00.111Z,97924.03
2023-03-06T23:02:32.248Z,97928.56
2023-03-06T23:04:59.496Z,97924.75
2023-03-06T23:07:26.382Z,97928.56
2023-03-06T23:10:00.640Z,97919.19
2023-03-06T23:12:46.343Z,97920.41
2023-03-06T23:15:31.825Z,97922.75
2023-03-06T23:18:17.420Z,97920.97
2023-03-06T23:21:09.001Z,97923.59
2023-03-06T23:23:54.734Z,97916.56
2023-03-06T23:26:26.112Z,97913.81
2023-03-06T23:28:53.398Z,97921.41
2023-03-06T23:31:22.703Z,97911.75
2023-03-06T23:33:50.040Z,97911.50
2023-03-06T23:36:17.873Z,97913.44
2023-03-06T23:38:44.885Z,97909.97
2023-03-06T23:41:13.228Z,97916.44
2023-03-06T23:43:40.137Z,97915.72
2023-03-06T23:46:07.678Z,97922.47
2023-03-06T23:48:36.152Z,97905.94
2023-03-06T23:51:14.400Z,97913.06
2023-03-06T23:53:41.628Z,97920.53
2023-03-06T23:56:08.769Z,97910.19
2023-03-06T23:58:36.054Z,97919.97
